Latest Weather Observations for Port Fairy

IDV60801

Issued at 11:32 pm EST Monday 26 September 2016 (issued every 30 minutes, with the page automatically refreshed every 10 minutes)

About weather observations | Map of weather stations | Latest weather observations for VIC | Other Formats
Station Details ID: 090175 Name: PORT FAIRY AWS Lat: -38.39 Lon: 142.23 Height: 10.0 m
Data from the previous 72 hours. | See also: Recent months at Port Fairy
Date/Time
EST
Temp
°C
App
Temp
°C
Dew
Point
°C
Rel
Hum
%
Delta-T
°C
Wind Press
QNH
hPa
Press
MSL
hPa
Rain since
9am
mm
Dir  Spd
km/h
Gust
km/h
Spd
kts
Gust
kts
26/11:30pm 6.3 2.3 5.1 92 0.5 NNW 15 20 8 11 1009.5 1009.5 4.0
26/11:00pm 6.5 2.2 5.3 92 0.5 NNW 17 22 9 12 1009.5 1009.5 4.0
26/10:30pm 6.8 3.3 5.6 92 0.5 NNW 13 20 7 11 1009.5 1009.5 4.0
26/10:00pm 6.9 3.5 5.7 92 0.5 NNW 13 20 7 11 1009.6 1009.6 4.0
26/09:30pm 7.1 3.6 5.6 90 0.7 NNW 13 22 7 12 1009.5 1009.5 4.0
26/09:00pm 7.0 3.8 5.0 87 0.9 NNW 11 17 6 9 1009.3 1009.3 4.0
26/08:30pm 7.8 5.2 6.1 89 0.8 NW 9 17 5 9 1009.0 1009.0 4.0
26/08:00pm 8.3 5.5 6.8 90 0.7 NW 11 19 6 10 1008.7 1008.7 4.0
26/07:30pm 8.3 5.5 6.8 90 0.7 N 11 17 6 9 1008.6 1008.6 4.0
26/07:00pm 8.5 6.0 6.6 88 0.9 NNW 9 17 5 9 1008.5 1008.5 4.0
26/06:30pm 8.7 5.9 6.8 88 0.9 NNW 11 19 6 10 1008.3 1008.3 4.0
26/06:00pm 9.4 6.3 7.2 86 1.0 NNW 13 22 7 12 1008.1 1008.1 4.0
26/05:30pm 8.9 5.8 7.2 89 0.8 NNW 13 24 7 13 1008.1 1008.1 4.0
26/05:00pm 7.7 4.8 6.6 93 0.5 NNW 11 19 6 10 1007.9 1007.9 4.0
26/04:30pm 7.4 3.3 6.3 93 0.5 NNW 17 28 9 15 1008.3 1008.3 3.8
26/04:00pm 8.1 1.6 6.6 90 0.7 WNW 30 54 16 29 1008.8 1008.8 1.8
26/03:43pm 10.1 6.0 7.9 86 1.1 WNW 19 56 10 30 1008.5 1008.5 0.6
26/03:30pm 10.8 8.0 8.6 86 1.1 NNW 13 30 7 16 1007.6 1007.6 0.4
26/03:00pm 14.1 9.7 6.7 61 3.6 NNW 19 41 10 22 1007.1 1007.1 0.0
26/02:30pm 15.6 11.1 6.3 54 4.5 NNW 19 35 10 19 1007.1 1007.1 0.0
26/02:00pm 16.5 11.9 6.3 51 5.0 NNW 20 32 11 17 1007.3 1007.3 0.0
26/01:30pm 16.8 12.5 6.9 52 4.9 NNW 19 28 10 15 1007.8 1007.8 0.0
26/01:00pm 15.4 10.8 6.7 56 4.3 NNW 20 32 11 17 1008.4 1008.4 0.0
26/12:30pm 15.8 10.6 7.1 56 4.3 NNW 24 35 13 19 1008.9 1008.9 0.0
26/12:00pm 17.3 12.7 8.2 55 4.6 NNW 22 35 12 19 1009.3 1009.3 0.0
26/11:30am 15.5 11.1 7.3 58 4.1 N 20 35 11 19 1009.8 1009.8 0.0
26/11:00am 15.8 11.1 7.6 58 4.1 NNW 22 35 12 19 1010.3 1010.3 0.0
26/10:30am 14.4 10.4 8.1 66 3.1 NNW 19 30 10 16 1010.6 1010.6 0.0
26/10:00am 14.0 9.7 7.8 66 3.1 NNW 20 33 11 18 1011.0 1011.0 0.0
26/09:30am 13.2 9.7 8.7 74 2.3 N 17 22 9 12 1011.0 1011.0 0.0
26/09:00am 11.8 8.5 7.9 77 1.9 N 15 24 8 13 1011.1 1011.1 0.0
26/08:30am 10.9 7.8 7.4 79 1.7 NNW 13 20 7 11 1011.3 1011.3 0.0
26/08:00am 8.9 6.0 6.3 84 1.2 N 11 17 6 9 1011.4 1011.4 0.0
26/07:30am 7.9 4.8 5.7 86 1.0 N 11 17 6 9 1011.5 1011.5 0.0
26/07:00am 6.0 2.7 4.6 91 0.6 N 11 17 6 9 1011.6 1011.6 0.0
26/06:30am 5.5 2.2 4.3 92 0.5 N 11 15 6 8 1011.7 1011.7 0.0
26/06:00am 5.7 2.4 4.3 91 0.6 NNE 11 15 6 8 1011.7 1011.7 0.0
26/05:30am 5.9 2.6 4.7 92 0.5 N 11 15 6 8 1011.6 1011.6 0.0
26/05:00am 5.6 2.7 4.6 93 0.4 N 9 15 5 8 1011.6 1011.6 0.0
26/04:30am 5.9 3.0 4.7 92 0.5 N 9 13 5 7 1011.6 1011.6 0.0
26/04:00am 6.2 3.4 5.0 92 0.5 N 9 13 5 7 1011.6 1011.6 0.0
26/03:30am 6.6 4.2 5.1 90 0.7 N 7 11 4 6 1011.7 1011.7 0.0
26/03:00am 7.0 3.9 5.5 90 0.7 N 11 15 6 8 1012.0 1012.0 0.0
26/02:30am 7.4 4.7 5.7 89 0.8 N 9 13 5 7 1012.3 1012.3 0.0
26/02:00am 7.5 4.8 5.6 88 0.9 N 9 13 5 7 1012.7 1012.7 0.0
26/01:30am 7.9 5.3 5.9 87 0.9 N 9 13 5 7 1012.9 1012.9 0.0
26/01:00am 8.0 5.4 6.0 87 0.9 N 9 13 5 7 1013.2 1013.2 0.0
26/12:30am 8.0 5.4 6.1 88 0.9 N 9 13 5 7 1013.4 1013.4 0.0
26/12:00am 8.0 5.8 6.1 88 0.9 NNE 7 13 4 7 1013.3 1013.3 0.0
 
Date/Time
EST
Temp
°C
App
Temp
°C
Dew
Point
°C
Rel
Hum
%
Delta-T
°C
Wind Press
QNH
hPa
Press
MSL
hPa
Rain since
9am
mm
Dir  Spd
km/h
Gust
km/h
Spd
kts
Gust
kts
25/11:30pm 8.4 6.2 6.2 86 1.0 N 7 11 4 6 1013.5 1013.5 0.0
25/11:00pm 8.9 6.3 6.2 83 1.2 NNE 9 11 5 6 1013.5 1013.5 0.0
25/10:30pm 9.2 6.6 6.3 82 1.3 N 9 13 5 7 1013.7 1013.7 0.0
25/10:00pm 9.3 7.1 6.2 81 1.4 N 7 9 4 5 1013.8 1013.8 0.0
25/09:30pm 9.3 7.1 6.0 80 1.5 N 7 11 4 6 1013.9 1013.9 0.0
25/09:00pm 9.4 7.3 5.9 79 1.6 NE 6 7 3 4 1014.0 1014.0 0.0
25/08:30pm 8.9 7.6 6.0 82 1.3 NE 2 6 1 3 1013.9 1013.9 0.0
25/08:00pm 9.2 7.4 5.6 78 1.6 ENE 4 6 2 3 1013.6 1013.6 0.0
25/07:30pm 9.8 8.0 5.4 74 2.0 WNW 4 6 2 3 1013.3 1013.3 0.0
25/07:00pm 9.9 7.7 5.3 73 2.1 WNW 6 9 3 5 1013.0 1013.0 0.0
25/06:30pm 10.7 7.5 5.0 68 2.6 W 11 19 6 10 1013.0 1013.0 0.0
25/06:00pm 11.5 7.6 5.2 65 2.9 WSW 15 20 8 11 1012.5 1012.5 0.0
25/05:30pm 12.3 8.4 5.2 62 3.3 WSW 15 20 8 11 1012.4 1012.4 0.0
25/05:00pm 12.2 8.0 5.8 65 3.0 WSW 17 24 9 13 1012.0 1012.0 0.0
25/04:30pm 12.9 8.4 4.3 56 3.9 WSW 17 22 9 12 1011.9 1011.9 0.0
25/04:00pm 12.5 8.1 4.5 58 3.6 WSW 17 22 9 12 1011.7 1011.7 0.0
25/03:30pm 13.0 7.9 3.9 54 4.1 WSW 20 28 11 15 1012.0 1012.0 0.0
25/03:00pm 14.0 8.8 5.4 56 4.0 WSW 22 28 12 15 1012.0 1012.0 0.0
25/02:30pm 13.8 8.1 4.7 54 4.2 WSW 24 32 13 17 1012.1 1012.1 0.0
25/02:00pm 13.9 8.9 4.5 53 4.3 WSW 20 28 11 15 1012.1 1012.1 0.0
25/01:30pm 14.0 8.6 4.6 53 4.3 WSW 22 28 12 15 1012.2 1012.2 0.0
25/01:00pm 13.7 8.1 5.6 58 3.8 WSW 24 32 13 17 1012.5 1012.5 0.0
25/12:30pm 13.8 8.2 5.4 57 3.9 WSW 24 32 13 17 1012.5 1012.5 0.0
25/12:00pm 13.5 7.3 6.1 61 3.5 WSW 28 39 15 21 1012.7 1012.7 0.0
25/11:30am 13.3 6.0 4.7 56 4.0 WSW 32 39 17 21 1012.6 1012.6 0.0
25/11:00am 13.7 8.1 5.6 58 3.8 WSW 24 35 13 19 1012.4 1012.4 0.0
25/10:30am 13.4 8.8 6.5 63 3.3 W 20 33 11 18 1012.4 1012.4 0.0
25/10:00am 12.4 9.1 8.1 75 2.1 WNW 15 26 8 14 1012.4 1012.4 0.0
25/09:30am 11.5 4.7 4.9 64 3.0 WSW 30 39 16 21 1012.2 1012.2 0.0
25/09:00am 10.7 7.5 6.8 77 1.8 NW 13 20 7 11 1012.0 1012.0 2.8
25/08:30am 11.0 8.0 7.7 80 1.6 NW 13 22 7 12 1011.6 1011.6 2.8
25/08:00am 8.4 5.4 5.9 84 1.1 NW 11 19 6 10 1011.2 1011.2 2.8
25/07:30am 7.7 4.7 6.0 89 0.8 NW 11 19 6 10 1010.8 1010.8 2.8
25/07:00am 6.8 3.6 5.3 90 0.7 NW 11 17 6 9 1010.4 1010.4 2.8
25/06:30am 7.1 3.1 4.9 86 1.0 NW 15 20 8 11 1010.0 1010.0 2.8
25/06:00am 6.8 3.6 5.0 88 0.8 NW 11 20 6 11 1009.6 1009.6 2.8
25/05:30am 7.1 3.6 5.4 89 0.8 NW 13 20 7 11 1009.6 1009.6 2.8
25/05:00am 6.8 4.0 5.1 89 0.7 NW 9 17 5 9 1009.1 1009.1 2.8
25/04:30am 7.1 3.2 5.3 88 0.8 NNW 15 20 8 11 1008.7 1008.7 2.8
25/04:00am 7.3 3.8 5.6 89 0.8 NW 13 20 7 11 1008.4 1008.4 2.6
25/03:30am 7.9 5.0 6.4 90 0.7 NW 11 17 6 9 1008.2 1008.2 2.6
25/03:00am 9.0 5.4 5.0 76 1.8 WNW 13 20 7 11 1008.2 1008.2 2.4
25/02:30am 9.0 4.3 5.0 76 1.8 W 19 32 10 17 1008.1 1008.1 2.4
25/02:24am 9.3 2.9 5.1 75 1.9 W 28 48 15 26 1008.1 1008.1 2.4
25/02:15am 8.9 4.3 5.8 81 1.4 WNW 19 44 10 24 1008.2 1008.2 2.4
25/02:00am 8.7 5.8 6.3 85 1.1 NW 11 20 6 11 1008.1 1008.1 2.2
25/01:30am 9.8 5.2 5.8 76 1.8 W 19 28 10 15 1008.0 1008.0 2.2
25/01:00am 10.3 7.0 6.5 77 1.8 WNW 13 24 7 13 1007.8 1007.8 2.2
25/12:30am 10.6 4.9 6.9 78 1.8 W 26 39 14 21 1007.6 1007.6 2.2
25/12:02am 11.1 5.2 7.4 78 1.8 W 28 50 15 27 1007.5 1007.5 2.2
25/12:00am 11.6 6.7 8.3 80 1.6 W 24 50 13 27 1007.5 1007.5 2.2
 
Date/Time
EST
Temp
°C
App
Temp
°C
Dew
Point
°C
Rel
Hum
%
Delta-T
°C
Wind Press
QNH
hPa
Press
MSL
hPa
Rain since
9am
mm
Dir  Spd
km/h
Gust
km/h
Spd
kts
Gust
kts
24/11:30pm 10.5 6.6 7.2 80 1.6 W 17 28 9 15 1007.4 1007.4 2.2
24/11:00pm 11.2 6.1 7.5 78 1.8 W 24 33 13 18 1007.3 1007.3 2.2
24/10:30pm 11.5 6.1 7.8 78 1.8 W 26 35 14 19 1007.2 1007.2 2.2
24/10:00pm 11.8 7.4 9.0 83 1.4 WSW 22 33 12 18 1007.1 1007.1 2.2
24/09:30pm 12.1 7.1 9.5 84 1.3 WSW 26 37 14 20 1006.8 1006.8 2.2
24/09:00pm 12.3 6.7 8.8 79 1.8 WSW 28 33 15 18 1006.7 1006.7 2.2
24/08:30pm 12.1 5.8 9.1 82 1.5 WSW 32 43 17 23 1006.1 1006.1 2.2
24/08:00pm 12.3 6.7 10.0 86 1.2 WSW 30 39 16 21 1005.7 1005.7 2.2
24/07:30pm 12.1 6.6 10.7 91 0.7 WSW 30 39 16 21 1005.3 1005.3 2.2
24/07:00pm 12.2 6.0 11.4 95 0.4 WSW 35 46 19 25 1004.6 1004.6 2.2
24/06:52pm 12.4 6.8 11.5 94 0.5 WSW 32 46 17 25 1004.4 1004.4 2.0
24/06:30pm 13.1 10.9 12.2 94 0.5 NNW 15 26 8 14 1003.7 1003.7 1.2
24/06:00pm 13.5 10.5 11.9 90 0.9 NNW 19 26 10 14 1003.1 1003.1 0.4
24/05:30pm 13.9 11.2 11.6 86 1.2 N 17 33 9 18 1002.9 1002.9 0.2
24/05:00pm 14.9 11.1 11.1 78 2.0 NNW 22 39 12 21 1002.7 1002.7 0.0
24/04:30pm 15.6 12.0 10.4 71 2.7 N 20 33 11 18 1002.4 1002.4 0.0
24/04:00pm 15.1 12.7 11.3 78 2.0 NNW 15 26 8 14 1002.7 1002.7 0.0
24/03:30pm 16.2 14.0 10.7 70 2.9 NW 13 20 7 11 1002.6 1002.6 0.0
24/03:00pm 16.7 14.3 9.9 64 3.6 NNW 13 19 7 10 1002.7 1002.7 0.0
24/02:30pm 16.4 12.7 9.3 63 3.7 N 19 33 10 18 1002.9 1002.9 0.0
24/02:00pm 17.4 14.2 9.8 61 4.0 N 17 24 9 13 1002.9 1002.9 0.0
24/01:30pm 17.1 13.4 9.3 60 4.1 NNW 19 28 10 15 1003.3 1003.3 0.0
24/01:00pm 17.0 13.0 9.2 60 4.1 N 20 32 11 17 1003.6 1003.6 0.0
24/12:30pm 16.8 13.0 9.2 61 3.9 N 19 26 10 14 1003.7 1003.7 0.0
24/12:00pm 16.6 12.1 8.6 59 4.1 N 22 35 12 19 1003.9 1003.9 0.0
24/11:30am 16.5 12.4 8.5 59 4.1 N 20 41 11 22 1004.0 1004.0 0.0
24/11:00am 16.4 11.9 8.4 59 4.1 N 22 35 12 19 1004.4 1004.4 0.0
24/10:30am 16.9 12.2 9.1 60 4.0 N 24 39 13 21 1004.7 1004.7 0.0
24/10:00am 16.4 12.2 9.6 64 3.6 N 22 37 12 20 1004.8 1004.8 0.0
24/09:30am 14.4 11.1 9.6 73 2.5 NNE 17 24 9 13 1005.3 1005.3 0.0
24/09:00am 12.2 8.5 8.1 76 2.0 NNE 17 26 9 14 1005.4 1005.4 0.0
24/08:30am 11.0 8.0 7.9 81 1.5 NNE 13 19 7 10 1005.7 1005.7 0.0
24/08:00am 10.4 7.4 7.6 83 1.3 NNE 13 24 7 13 1005.9 1005.9 0.0
24/07:30am 9.4 5.9 7.0 85 1.1 NNE 15 22 8 12 1006.2 1006.2 0.0
24/07:00am 8.8 5.2 6.8 87 0.9 NNE 15 22 8 12 1006.2 1006.2 0.0
24/06:30am 8.1 4.4 6.1 87 0.9 NNE 15 22 8 12 1006.5 1006.5 0.0
24/06:00am 8.1 3.9 5.9 86 1.0 NNE 17 22 9 12 1006.3 1006.3 0.0
24/05:30am 8.1 4.7 5.9 86 1.0 NNE 13 17 7 9 1006.3 1006.3 0.0
24/05:00am 8.3 4.9 5.9 85 1.1 NNE 13 19 7 10 1006.4 1006.4 0.0
24/04:30am 8.1 4.7 5.9 86 1.0 NNE 13 19 7 10 1006.8 1006.8 0.0
24/04:00am 7.8 4.3 5.6 86 1.0 NNE 13 17 7 9 1007.0 1007.0 0.0
24/03:30am 7.2 4.5 5.5 89 0.8 NNE 9 13 5 7 1007.3 1007.3 0.0
24/03:00am 7.3 4.6 5.6 89 0.8 NNE 9 13 5 7 1007.6 1007.6 0.0
24/02:30am 7.7 5.1 6.0 89 0.8 NNE 9 13 5 7 1008.1 1008.1 0.0
24/02:00am 8.0 5.4 6.1 88 0.9 NNE 9 15 5 8 1008.5 1008.5 0.0
24/01:30am 8.2 5.6 6.3 88 0.9 NNE 9 13 5 7 1008.8 1008.8 0.0
24/01:00am 8.9 6.2 7.2 89 0.8 NE 11 15 6 8 1008.8 1008.8 0.0
24/12:30am 9.0 6.7 7.5 90 0.7 NE 9 15 5 8 1008.9 1008.9 0.0
24/12:00am 8.9 6.7 7.7 92 0.6 NNE 9 11 5 6 1009.3 1009.3 0.0

Other Formats:

Comma delimited format used in spreadsheet applications
http://www.bom.gov.au/fwo/IDV60801/IDV60801.94830.axf

JavaScript Object Notation format (JSON) in row-major order
http://www.bom.gov.au/fwo/IDV60801/IDV60801.94830.json